Time;durP1;ratioP1;P1;durP2;ratioP2;P2;SDS_P1;SDS_P2;PMS_P1;PMS_P2;Temp;Humidity;BMP_temperature;BMP_pressure;BME280_temperature;BME280_humidity;BME280_pressure;Samples;Min_cycle;Max_cycle;Signal;HPM_P1;HPM_P2
2021/09/25 00:02:05;;;;;;;5.90;3.22;;;17.60;90.90;;;;;;5014651;28;20032;-74
2021/09/25 00:04:31;;;;;;;7.72;3.10;;;17.60;90.80;;;;;;4996728;28;20075;-74
2021/09/25 00:06:56;;;;;;;8.32;3.10;;;17.60;90.80;;;;;;4996642;28;20022;-74
2021/09/25 00:09:22;;;;;;;9.35;3.53;;;17.60;90.80;;;;;;4996446;28;20436;-74
2021/09/25 00:11:48;;;;;;;5.40;2.95;;;17.60;90.70;;;;;;5013027;28;20032;-73
2021/09/25 00:14:13;;;;;;;6.57;3.15;;;17.70;90.70;;;;;;5012846;28;20033;-74
2021/09/25 00:16:39;;;;;;;10.43;3.53;;;17.70;90.70;;;;;;5013867;28;20030;-75
2021/09/25 00:19:05;;;;;;;6.88;2.53;;;17.60;90.60;;;;;;5013544;28;20050;-75
2021/09/25 00:21:31;;;;;;;6.40;3.53;;;17.70;90.60;;;;;;5012634;28;20068;-74
2021/09/25 00:23:57;;;;;;;8.38;3.25;;;17.60;90.60;;;;;;5012814;28;20410;-73
2021/09/25 00:26:23;;;;;;;7.65;2.83;;;17.60;90.50;;;;;;4996092;28;20030;-73
2021/09/25 00:28:49;;;;;;;6.60;2.65;;;17.60;90.50;;;;;;5012380;28;20026;-74
2021/09/25 00:31:15;;;;;;;5.57;2.83;;;17.60;90.40;;;;;;5013576;28;20037;-74
2021/09/25 00:33:41;;;;;;;7.50;2.85;;;17.60;90.40;;;;;;5029136;28;20504;-74
2021/09/25 00:36:07;;;;;;;7.68;2.80;;;17.70;90.30;;;;;;5029257;28;20041;-75
2021/09/25 00:38:32;;;;;;;9.18;3.22;;;17.70;90.30;;;;;;4996085;28;20057;-74
2021/09/25 00:40:59;;;;;;;5.53;2.53;;;17.70;90.20;;;;;;5013827;28;20018;-74
2021/09/25 00:43:24;;;;;;;9.50;3.50;;;17.70;90.20;;;;;;4996193;28;20053;-74
2021/09/25 00:45:50;;;;;;;4.97;2.50;;;17.70;90.20;;;;;;5028916;28;20072;-74
2021/09/25 00:48:16;;;;;;;7.00;2.72;;;17.60;90.10;;;;;;5011672;28;20025;-74
2021/09/25 00:50:42;;;;;;;6.05;3.40;;;17.60;90.40;;;;;;5013305;28;20022;-74
2021/09/25 00:53:08;;;;;;;9.05;2.92;;;17.60;90.10;;;;;;5012684;28;20033;-74
2021/09/25 00:55:35;;;;;;;7.25;2.63;;;17.50;90.00;;;;;;5013565;28;20088;-74
2021/09/25 00:58:03;;;;;;;6.22;3.00;;;17.60;90.00;;;;;;5013381;28;20030;-74
2021/09/25 01:00:31;;;;;;;6.85;2.88;;;17.60;90.00;;;;;;5012249;28;20030;-75
2021/09/25 01:02:57;;;;;;;7.65;2.70;;;17.60;90.00;;;;;;5012408;28;20084;-75
2021/09/25 01:05:23;;;;;;;7.30;3.03;;;17.60;90.00;;;;;;5012558;28;20034;-74
2021/09/25 01:07:50;;;;;;;6.82;2.47;;;17.60;90.00;;;;;;4996237;28;20041;-75
2021/09/25 01:10:16;;;;;;;5.57;3.05;;;17.50;90.00;;;;;;5013411;28;20062;-75
2021/09/25 01:12:43;;;;;;;5.22;2.58;;;17.60;90.00;;;;;;5013370;28;20045;-75
2021/09/25 01:15:12;;;;;;;4.50;2.50;;;17.50;90.00;;;;;;5028519;28;20128;-75
2021/09/25 01:17:38;;;;;;;6.88;2.70;;;17.50;89.90;;;;;;5011972;28;20026;-75
2021/09/25 01:20:06;;;;;;;6.07;2.45;;;17.50;89.90;;;;;;5013265;28;20157;-75
2021/09/25 01:22:32;;;;;;;6.85;3.00;;;17.50;90.00;;;;;;5013463;28;20053;-74
2021/09/25 01:24:58;;;;;;;6.60;2.60;;;17.60;90.00;;;;;;5012133;28;20030;-74
2021/09/25 01:27:24;;;;;;;7.57;2.95;;;17.60;89.90;;;;;;5013735;28;20038;-74
2021/09/25 01:29:50;;;;;;;7.10;3.55;;;17.50;90.00;;;;;;5012125;28;20038;-75
2021/09/25 01:32:16;;;;;;;9.52;4.53;;;17.50;90.00;;;;;;5028338;28;20041;-74
2021/09/25 01:34:42;;;;;;;9.73;4.28;;;17.50;90.10;;;;;;5013391;28;20505;-75
2021/09/25 01:37:08;;;;;;;7.95;4.47;;;17.50;90.10;;;;;;5013490;28;20113;-75
2021/09/25 01:39:34;;;;;;;7.70;4.13;;;17.50;90.20;;;;;;5011819;28;20030;-74
2021/09/25 01:42:01;;;;;;;9.80;4.82;;;17.40;90.30;;;;;;4996084;28;20030;-76
2021/09/25 01:44:27;;;;;;;8.90;4.25;;;17.40;90.40;;;;;;5031462;28;20409;-75
2021/09/25 01:46:54;;;;;;;9.93;4.57;;;17.40;90.30;;;;;;5016406;28;20026;-76
2021/09/25 01:49:21;;;;;;;9.77;4.93;;;17.40;90.40;;;;;;5031746;28;20511;-76
2021/09/25 01:51:46;;;;;;;7.93;4.70;;;17.40;90.50;;;;;;5016556;28;20109;-76
2021/09/25 01:54:13;;;;;;;7.97;4.32;;;17.40;90.50;;;;;;4998535;28;20064;-76
2021/09/25 01:56:41;;;;;;;8.60;4.28;;;17.40;90.60;;;;;;5014977;28;20034;-77
2021/09/25 01:59:07;;;;;;;10.00;5.35;;;17.40;90.60;;;;;;5016192;28;20478;-77
2021/09/25 02:01:33;;;;;;;11.50;4.10;;;17.40;90.60;;;;;;5015117;28;20030;-77
2021/09/25 02:03:59;;;;;;;9.68;5.53;;;17.40;90.70;;;;;;5031579;28;20026;-78
2021/09/25 02:06:24;;;;;;;9.45;6.05;;;17.30;90.70;;;;;;4998810;28;20041;-76
2021/09/25 02:08:50;;;;;;;12.30;5.72;;;17.30;90.70;;;;;;5016392;28;20038;-77
2021/09/25 02:11:16;;;;;;;10.60;5.22;;;17.30;90.80;;;;;;4998636;28;20029;-77
2021/09/25 02:13:42;;;;;;;9.90;5.90;;;17.40;90.80;;;;;;5015479;28;20119;-77
2021/09/25 02:16:09;;;;;;;11.55;5.28;;;17.30;90.80;;;;;;4998548;28;20029;-77
2021/09/25 02:18:35;;;;;;;10.23;5.45;;;17.30;90.80;;;;;;5014319;28;20053;-77
2021/09/25 02:21:02;;;;;;;9.63;6.20;;;17.30;90.90;;;;;;5014782;28;20038;-77
2021/09/25 02:23:28;;;;;;;8.38;5.25;;;17.30;90.90;;;;;;4998580;28;20113;-77
2021/09/25 02:25:53;;;;;;;11.75;5.60;;;17.30;90.90;;;;;;5014889;28;20509;-77
2021/09/25 02:28:19;;;;;;;12.10;5.70;;;17.30;91.00;;;;;;5014625;28;20030;-79
2021/09/25 02:30:45;;;;;;;13.32;5.57;;;17.30;91.00;;;;;;5014829;28;20026;-77
2021/09/25 02:33:12;;;;;;;11.00;6.07;;;17.20;91.00;;;;;;5015622;28;20515;-78
2021/09/25 02:35:37;;;;;;;9.93;5.38;;;17.20;91.00;;;;;;5015699;28;20378;-77
2021/09/25 02:38:03;;;;;;;10.52;5.93;;;17.20;91.00;;;;;;5014338;28;20037;-78
2021/09/25 02:40:29;;;;;;;11.10;6.25;;;17.30;91.00;;;;;;5014408;28;20025;-78
2021/09/25 02:42:55;;;;;;;11.15;6.03;;;17.20;91.00;;;;;;5030629;28;20503;-77
2021/09/25 02:45:20;;;;;;;13.57;6.70;;;17.20;91.00;;;;;;5014466;28;20034;-77
2021/09/25 02:47:46;;;;;;;12.85;6.68;;;17.20;91.10;;;;;;5015967;28;20030;-78
2021/09/25 02:50:15;;;;;;;13.52;6.28;;;17.20;91.10;;;;;;5014551;28;20030;-78
2021/09/25 02:52:41;;;;;;;10.13;6.20;;;17.20;91.10;;;;;;5015843;28;20103;-77
2021/09/25 02:55:07;;;;;;;12.40;6.43;;;17.20;91.10;;;;;;5014062;28;20022;-78
2021/09/25 02:57:33;;;;;;;14.38;6.82;;;17.20;91.10;;;;;;5013726;28;20022;-78
2021/09/25 02:59:59;;;;;;;12.57;6.03;;;17.10;91.10;;;;;;5013727;28;20045;-78
2021/09/25 03:02:24;;;;;;;11.55;6.53;;;17.10;91.20;;;;;;5013780;28;20026;-78
2021/09/25 03:04:50;;;;;;;12.38;6.20;;;17.10;91.20;;;;;;5013917;28;20507;-78
2021/09/25 03:07:16;;;;;;;13.77;6.47;;;17.10;91.20;;;;;;5013776;28;20022;-78
2021/09/25 03:09:41;;;;;;;11.65;6.95;;;17.00;91.30;;;;;;5013705;28;20030;-77
2021/09/25 03:12:08;;;;;;;10.98;6.60;;;17.00;91.30;;;;;;5014995;28;20030;-78
2021/09/25 03:14:34;;;;;;;13.65;6.32;;;17.00;91.30;;;;;;4997424;28;20389;-76
2021/09/25 03:16:59;;;;;;;12.20;6.80;;;17.00;91.30;;;;;;5013597;28;20026;-76
2021/09/25 03:19:25;;;;;;;12.75;6.75;;;17.00;91.30;;;;;;5014659;28;20045;-76
2021/09/25 03:21:50;;;;;;;11.25;6.88;;;16.90;91.30;;;;;;5013806;28;20026;-76
2021/09/25 03:24:16;;;;;;;12.15;6.15;;;17.00;91.40;;;;;;5014771;28;20101;-76
2021/09/25 03:26:42;;;;;;;13.63;7.03;;;17.00;91.40;;;;;;5014628;28;20612;-77
2021/09/25 03:29:08;;;;;;;12.88;6.80;;;16.90;91.60;;;;;;5013461;28;20034;-76
2021/09/25 03:31:34;;;;;;;15.75;7.47;;;17.00;91.40;;;;;;5013661;28;20030;-76
2021/09/25 03:34:00;;;;;;;14.23;7.28;;;16.90;91.40;;;;;;5013403;28;20057;-76
2021/09/25 03:36:25;;;;;;;12.13;6.43;;;16.90;91.40;;;;;;5015041;28;20477;-77
2021/09/25 03:38:51;;;;;;;15.48;7.40;;;16.90;91.50;;;;;;5014752;28;20037;-76
2021/09/25 03:41:17;;;;;;;13.35;7.22;;;16.90;91.50;;;;;;5014613;28;20018;-76
2021/09/25 03:43:44;;;;;;;14.25;8.30;;;16.90;91.80;;;;;;5015694;28;20112;-75
2021/09/25 03:46:10;;;;;;;13.48;6.93;;;16.90;91.50;;;;;;5014554;28;20022;-76
2021/09/25 03:48:35;;;;;;;11.15;6.85;;;16.90;91.50;;;;;;5016153;28;20034;-75
2021/09/25 03:51:01;;;;;;;12.07;6.55;;;16.90;91.50;;;;;;5015435;28;20437;-73
2021/09/25 03:53:26;;;;;;;13.27;7.80;;;16.90;91.50;;;;;;5014242;28;20036;-76
2021/09/25 03:55:52;;;;;;;15.25;7.78;;;16.90;91.50;;;;;;5015020;28;20057;-76
2021/09/25 03:58:17;;;;;;;13.00;6.88;;;16.90;91.50;;;;;;5015200;28;20030;-77
2021/09/25 04:00:43;;;;;;;14.30;8.40;;;16.90;91.60;;;;;;4997577;28;20385;-76
2021/09/25 04:03:12;;;;;;;13.93;7.45;;;16.90;91.50;;;;;;5014740;28;20049;-77
2021/09/25 04:05:39;;;;;;;19.10;8.02;;;16.90;91.60;;;;;;5013812;28;20025;-76
2021/09/25 04:08:06;;;;;;;12.38;7.38;;;16.90;91.60;;;;;;5013958;28;20022;-76
2021/09/25 04:10:32;;;;;;;16.13;7.20;;;16.90;91.60;;;;;;5014123;28;20029;-77
2021/09/25 04:12:58;;;;;;;14.13;7.47;;;16.90;91.60;;;;;;5014312;28;20030;-76
2021/09/25 04:15:25;;;;;;;14.25;7.50;;;16.80;91.60;;;;;;5029133;28;20117;-77
2021/09/25 04:17:51;;;;;;;16.05;8.20;;;16.90;91.60;;;;;;5012783;28;20070;-76
2021/09/25 04:20:17;;;;;;;14.18;7.47;;;16.80;91.80;;;;;;4996351;28;20037;-76
2021/09/25 04:22:43;;;;;;;17.05;8.52;;;16.80;91.60;;;;;;5012881;28;20040;-77
2021/09/25 04:25:09;;;;;;;14.18;8.00;;;16.80;91.70;;;;;;5013901;28;20429;-77
2021/09/25 04:27:35;;;;;;;15.18;7.43;;;16.90;91.70;;;;;;5012815;28;20390;-77
2021/09/25 04:30:02;;;;;;;13.32;7.90;;;16.90;91.70;;;;;;4996293;28;20026;-77
2021/09/25 04:32:28;;;;;;;16.80;8.38;;;16.90;91.70;;;;;;5012421;28;20541;-77
2021/09/25 04:34:54;;;;;;;13.10;7.80;;;16.90;91.70;;;;;;5028979;28;20034;-77
2021/09/25 04:37:20;;;;;;;14.00;7.63;;;16.90;92.00;;;;;;4996527;28;20397;-78
2021/09/25 04:39:46;;;;;;;14.13;8.50;;;16.80;91.70;;;;;;5012169;28;20030;-78
2021/09/25 04:42:12;;;;;;;13.75;8.05;;;16.80;91.80;;;;;;5012489;28;20100;-78
2021/09/25 04:44:38;;;;;;;12.73;7.97;;;16.80;92.10;;;;;;5013970;28;20036;-77
2021/09/25 04:47:03;;;;;;;11.93;7.93;;;16.80;91.80;;;;;;5012707;28;20116;-77
2021/09/25 04:49:29;;;;;;;15.50;8.63;;;16.80;91.80;;;;;;5013477;28;20038;-78
2021/09/25 04:51:55;;;;;;;14.02;8.52;;;16.80;91.80;;;;;;5001273;28;20092;-77
2021/09/25 04:54:20;;;;;;;18.70;9.02;;;16.80;91.80;;;;;;5010756;28;20112;-77
2021/09/25 04:56:46;;;;;;;14.13;8.75;;;16.80;91.80;;;;;;5021017;28;20034;-77
2021/09/25 04:59:12;;;;;;;16.27;8.48;;;16.80;91.90;;;;;;5012085;28;20048;-77
2021/09/25 05:01:37;;;;;;;18.25;9.15;;;16.80;91.90;;;;;;4995604;28;20446;-78
2021/09/25 05:04:04;;;;;;;14.15;7.50;;;16.80;91.80;;;;;;5013178;28;20071;-77
2021/09/25 05:06:30;;;;;;;13.60;7.45;;;16.80;91.80;;;;;;5013290;28;20490;-77
2021/09/25 05:08:56;;;;;;;14.05;7.80;;;16.70;91.80;;;;;;5011777;28;20038;-78
2021/09/25 05:11:24;;;;;;;14.63;8.00;;;16.70;91.90;;;;;;5012146;28;20038;-76
2021/09/25 05:13:50;;;;;;;14.18;8.68;;;16.70;91.90;;;;;;5013420;28;20480;-78
2021/09/25 05:16:15;;;;;;;13.82;7.63;;;16.70;91.90;;;;;;5013752;28;20034;-77
2021/09/25 05:18:41;;;;;;;16.23;7.30;;;16.70;91.90;;;;;;4998829;28;20489;-78
2021/09/25 05:21:07;;;;;;;14.68;7.90;;;16.70;91.90;;;;;;5017208;28;20458;-76
2021/09/25 05:23:33;;;;;;;12.35;7.50;;;16.70;92.00;;;;;;5008157;28;20089;-77
2021/09/25 05:25:58;;;;;;;14.00;7.53;;;16.70;92.20;;;;;;5012439;28;20030;-77
2021/09/25 05:28:24;;;;;;;12.63;7.10;;;16.70;92.00;;;;;;4997306;28;20026;-77
2021/09/25 05:30:50;;;;;;;12.38;6.95;;;16.70;92.00;;;;;;4995834;28;20033;-78
2021/09/25 05:33:15;;;;;;;13.15;7.13;;;16.60;92.00;;;;;;5012244;28;20037;-77
2021/09/25 05:35:41;;;;;;;13.32;7.57;;;16.60;92.00;;;;;;4997170;28;20113;-77
2021/09/25 05:38:07;;;;;;;12.40;7.35;;;16.70;92.00;;;;;;5012106;28;20030;-77
2021/09/25 05:40:33;;;;;;;12.07;7.72;;;16.70;92.00;;;;;;4997629;28;20034;-77
2021/09/25 05:42:58;;;;;;;13.48;7.22;;;16.60;92.00;;;;;;4995937;28;20018;-77
2021/09/25 05:45:24;;;;;;;13.57;7.57;;;16.70;92.00;;;;;;4997145;28;20058;-77
2021/09/25 05:47:50;;;;;;;12.15;7.45;;;16.70;92.10;;;;;;4996024;28;20429;-77
2021/09/25 05:50:16;;;;;;;13.63;7.20;;;16.70;92.10;;;;;;4996844;28;20030;-76
2021/09/25 05:52:41;;;;;;;11.63;6.50;;;16.70;92.10;;;;;;4997215;28;20493;-77
2021/09/25 05:55:09;;;;;;;15.00;7.35;;;16.70;92.10;;;;;;4996725;28;20034;-76
2021/09/25 05:57:34;;;;;;;12.60;6.55;;;16.70;92.10;;;;;;5011945;28;20042;-76
2021/09/25 06:00:00;;;;;;;14.57;6.72;;;16.60;92.10;;;;;;4995374;28;20096;-78
2021/09/25 06:02:26;;;;;;;13.45;7.18;;;16.70;92.10;;;;;;4996524;28;20054;-77
2021/09/25 06:04:52;;;;;;;15.07;7.32;;;16.70;92.10;;;;;;5012155;28;20018;-77
2021/09/25 06:07:18;;;;;;;13.07;7.13;;;16.70;92.00;;;;;;5011753;28;20084;-78
2021/09/25 06:09:44;;;;;;;13.05;6.88;;;16.70;92.10;;;;;;5011869;28;20034;-78
2021/09/25 06:12:10;;;;;;;13.48;7.53;;;16.70;92.10;;;;;;4996652;28;20031;-77
2021/09/25 06:14:38;;;;;;;11.68;6.38;;;16.70;92.10;;;;;;4996605;28;20066;-77
2021/09/25 06:17:04;;;;;;;12.00;6.72;;;16.80;92.10;;;;;;4996715;28;20125;-78
2021/09/25 06:19:30;;;;;;;15.55;7.55;;;16.80;92.10;;;;;;4994738;28;20101;-75
2021/09/25 06:21:56;;;;;;;12.43;7.10;;;16.80;92.10;;;;;;5011006;28;20050;-77
2021/09/25 06:24:22;;;;;;;14.63;7.10;;;16.80;92.10;;;;;;5011564;28;20038;-78
2021/09/25 06:26:48;;;;;;;11.57;6.82;;;16.80;92.10;;;;;;5011681;28;20030;-79
2021/09/25 06:29:14;;;;;;;11.80;5.88;;;16.90;92.10;;;;;;5011127;28;20035;-75
2021/09/25 06:31:40;;;;;;;11.48;6.75;;;16.80;92.00;;;;;;5003977;28;20040;-76
2021/09/25 06:34:05;;;;;;;12.35;6.70;;;16.90;92.00;;;;;;5015639;28;20508;-75
2021/09/25 06:36:33;;;;;;;13.23;7.53;;;16.90;92.00;;;;;;5014374;28;20038;-74
2021/09/25 06:39:00;;;;;;;12.63;6.30;;;16.90;92.00;;;;;;5014088;28;20037;-74
2021/09/25 06:41:26;;;;;;;12.55;7.07;;;16.90;92.00;;;;;;5013976;28;20022;-74
2021/09/25 06:43:52;;;;;;;11.05;6.30;;;16.90;92.00;;;;;;5015338;28;20037;-76
2021/09/25 06:46:17;;;;;;;11.02;6.07;;;17.00;92.00;;;;;;5013676;28;20030;-74
2021/09/25 06:48:43;;;;;;;9.65;5.78;;;17.00;92.00;;;;;;5014930;28;20387;-74
2021/09/25 06:51:10;;;;;;;12.45;6.47;;;17.00;92.00;;;;;;5015178;28;20038;-74
2021/09/25 06:53:36;;;;;;;12.32;7.93;;;17.00;92.20;;;;;;5014260;28;20040;-75
2021/09/25 06:56:01;;;;;;;11.18;6.65;;;17.10;92.00;;;;;;5014996;28;20033;-75
2021/09/25 06:58:27;;;;;;;12.55;7.18;;;17.10;91.90;;;;;;5013948;28;20038;-74
2021/09/25 07:00:52;;;;;;;12.40;6.55;;;17.10;91.90;;;;;;5015040;28;20417;-75
2021/09/25 07:03:18;;;;;;;11.80;6.60;;;17.10;91.90;;;;;;5014214;28;20037;-75
2021/09/25 07:05:44;;;;;;;8.57;5.38;;;17.10;91.90;;;;;;5015167;28;20378;-75
2021/09/25 07:08:10;;;;;;;11.50;6.65;;;17.20;91.90;;;;;;5015087;28;20483;-75
2021/09/25 07:10:39;;;;;;;11.40;6.60;;;17.20;91.90;;;;;;5013402;28;20038;-75
2021/09/25 07:13:04;;;;;;;12.23;7.18;;;17.20;91.90;;;;;;5015085;28;20076;-75
2021/09/25 07:15:31;;;;;;;11.65;6.40;;;17.20;91.90;;;;;;5013575;28;20456;-78
2021/09/25 07:17:57;;;;;;;11.43;6.32;;;17.20;91.80;;;;;;5013306;28;20030;-78
2021/09/25 07:20:23;;;;;;;13.73;6.97;;;17.20;91.80;;;;;;4997206;28;20482;-78
2021/09/25 07:22:51;;;;;;;10.98;6.90;;;17.20;91.80;;;;;;5014730;28;20032;-78
2021/09/25 07:25:23;;;;;;;13.52;7.25;;;17.20;91.80;;;;;;4997429;28;20041;-78
2021/09/25 07:27:50;;;;;;;10.75;7.10;;;17.30;91.80;;;;;;4994081;28;20026;-77
2021/09/25 07:30:16;;;;;;;10.90;6.93;;;17.30;91.80;;;;;;4994951;28;20041;-78
2021/09/25 07:32:42;;;;;;;12.07;7.35;;;17.30;91.80;;;;;;4993959;28;20018;-79
2021/09/25 07:35:09;;;;;;;12.05;7.10;;;17.30;91.80;;;;;;4978251;28;20343;-81
2021/09/25 07:37:34;;;;;;;11.38;7.03;;;17.30;91.80;;;;;;4993589;28;20025;-80
2021/09/25 07:40:04;;;;;;;11.77;7.70;;;17.30;92.10;;;;;;4976444;28;20026;-81
2021/09/25 07:42:29;;;;;;;13.48;8.52;;;17.40;91.80;;;;;;4994721;28;20026;-82
2021/09/25 07:44:56;;;;;;;13.60;7.70;;;17.40;91.80;;;;;;4977373;28;20023;-81
2021/09/25 07:47:21;;;;;;;12.48;7.38;;;17.40;91.70;;;;;;4996319;28;20038;-80
2021/09/25 07:49:47;;;;;;;15.30;7.97;;;17.40;91.70;;;;;;4996873;28;20030;-81
2021/09/25 07:52:13;;;;;;;12.30;7.80;;;17.40;91.70;;;;;;4997125;28;20093;-81
2021/09/25 07:54:38;;;;;;;13.60;8.20;;;17.40;91.70;;;;;;4979959;28;20125;-80
2021/09/25 07:57:04;;;;;;;15.43;9.02;;;17.50;91.70;;;;;;5012641;28;20489;-80
2021/09/25 07:59:30;;;;;;;14.25;7.80;;;17.50;91.70;;;;;;4996661;28;20026;-80
2021/09/25 08:01:55;;;;;;;12.80;8.32;;;17.50;91.70;;;;;;5011855;28;20031;-79
2021/09/25 08:04:21;;;;;;;13.45;8.20;;;17.50;91.70;;;;;;4996665;28;20030;-80
2021/09/25 08:06:47;;;;;;;15.73;9.27;;;17.60;91.70;;;;;;5012670;28;20030;-80
2021/09/25 08:09:13;;;;;;;13.32;8.02;;;17.60;91.70;;;;;;4995906;28;20113;-82
2021/09/25 08:11:38;;;;;;;12.10;7.22;;;17.60;91.60;;;;;;4996495;28;20030;-77
2021/09/25 08:14:04;;;;;;;15.07;8.57;;;17.60;91.60;;;;;;4997828;28;20034;-82
2021/09/25 08:16:30;;;;;;;13.10;8.02;;;17.60;91.60;;;;;;4996818;28;20125;-81
2021/09/25 08:18:56;;;;;;;15.00;8.55;;;17.70;91.60;;;;;;5009855;28;20177;-81
2021/09/25 08:21:23;;;;;;;12.75;7.40;;;17.70;91.50;;;;;;4994224;28;20492;-81
2021/09/25 08:23:49;;;;;;;12.38;7.35;;;17.70;91.70;;;;;;4996490;28;20026;-81
2021/09/25 08:26:15;;;;;;;16.80;8.30;;;17.70;91.50;;;;;;4996225;28;20120;-82
2021/09/25 08:28:41;;;;;;;14.80;7.95;;;17.80;91.50;;;;;;5027127;28;20034;-82
2021/09/25 08:31:06;;;;;;;15.27;9.18;;;17.80;91.40;;;;;;4999167;28;20501;-81
2021/09/25 08:33:32;;;;;;;14.90;8.30;;;17.90;91.40;;;;;;5000245;28;20401;-81
2021/09/25 08:35:59;;;;;;;14.85;8.80;;;17.90;91.40;;;;;;5000410;28;20076;-82
2021/09/25 08:38:25;;;;;;;14.63;7.47;;;17.90;91.30;;;;;;5015187;28;20037;-81
2021/09/25 08:40:51;;;;;;;11.80;8.35;;;18.00;91.30;;;;;;4998719;28;20019;-82
2021/09/25 08:43:18;;;;;;;15.68;8.70;;;18.00;91.30;;;;;;5000041;28;20033;-80
2021/09/25 08:45:46;;;;;;;16.08;8.32;;;18.00;91.30;;;;;;5013059;28;20117;-81
2021/09/25 08:48:12;;;;;;;15.20;9.10;;;18.00;91.20;;;;;;5012222;28;20084;-82
2021/09/25 08:50:37;;;;;;;13.88;6.70;;;18.00;91.10;;;;;;5011927;28;20501;-80
2021/09/25 08:53:03;;;;;;;12.35;7.70;;;18.10;91.10;;;;;;5015572;28;20120;-82
2021/09/25 08:55:29;;;;;;;15.82;8.00;;;18.10;91.10;;;;;;5016093;28;20112;-78
2021/09/25 08:57:54;;;;;;;13.35;8.48;;;18.10;91.10;;;;;;5015953;28;20030;-79
2021/09/25 09:00:35;;;;;;;13.45;8.75;;;18.10;91.10;;;;;;5015832;28;20030;-78
2021/09/25 09:03:19;;;;;;;17.10;8.45;;;18.20;91.00;;;;;;5006372;28;20031;-78
2021/09/25 09:05:45;;;;;;;13.93;8.68;;;18.10;90.90;;;;;;5027091;28;20022;-78
2021/09/25 09:08:12;;;;;;;14.75;8.85;;;18.20;90.90;;;;;;5015496;28;20037;-78
2021/09/25 09:10:38;;;;;;;17.48;9.38;;;18.20;90.80;;;;;;5015870;28;20126;-78
2021/09/25 09:13:05;;;;;;;16.85;9.52;;;18.10;90.80;;;;;;5017180;28;20041;-79
2021/09/25 09:15:32;;;;;;;15.57;9.50;;;18.10;90.80;;;;;;5032189;28;20057;-78
2021/09/25 09:18:00;;;;;;;14.50;9.18;;;18.10;90.90;;;;;;5015647;28;20544;-79
2021/09/25 09:20:30;;;;;;;13.55;8.57;;;18.10;90.90;;;;;;5015991;28;20381;-79
2021/09/25 09:23:17;;;;;;;13.88;8.80;;;18.20;90.90;;;;;;5016847;28;20343;-78
2021/09/25 09:25:43;;;;;;;14.13;8.48;;;18.20;90.90;;;;;;5016656;28;20022;-80
2021/09/25 09:28:30;;;;;;;15.27;8.77;;;18.30;90.90;;;;;;5014716;28;20156;-79
2021/09/25 09:30:58;;;;;;;15.57;9.68;;;18.30;90.90;;;;;;5015886;28;20022;-79
2021/09/25 09:33:27;;;;;;;12.50;7.70;;;18.30;90.80;;;;;;5015730;28;20034;-79
2021/09/25 09:35:53;;;;;;;17.17;9.45;;;18.40;90.80;;;;;;5015502;28;20037;-78
2021/09/25 09:38:23;;;;;;;14.50;8.32;;;18.40;90.80;;;;;;5015528;28;20026;-78
2021/09/25 09:40:56;;;;;;;16.20;9.63;;;18.50;90.70;;;;;;4998882;28;20022;-77
2021/09/25 09:43:21;;;;;;;15.20;9.32;;;18.50;90.70;;;;;;5016452;28;20038;-78
2021/09/25 09:45:47;;;;;;;16.42;10.18;;;18.50;90.60;;;;;;4998831;28;20068;-79
2021/09/25 09:48:12;;;;;;;13.77;9.05;;;18.60;90.60;;;;;;5015380;28;20105;-78
2021/09/25 09:50:39;;;;;;;16.13;8.43;;;18.60;90.60;;;;;;4998887;28;20038;-78
2021/09/25 09:53:15;;;;;;;18.30;9.93;;;18.60;90.50;;;;;;5015198;28;20113;-79
2021/09/25 09:55:41;;;;;;;16.10;9.20;;;18.70;90.50;;;;;;5015541;28;20358;-78
2021/09/25 09:58:07;;;;;;;13.38;8.75;;;18.70;90.40;;;;;;5016424;28;20026;-78
2021/09/25 10:00:34;;;;;;;15.65;9.73;;;18.70;90.40;;;;;;4998620;28;20433;-79
2021/09/25 10:03:00;;;;;;;15.35;9.13;;;18.70;90.30;;;;;;5013925;28;20064;-79
2021/09/25 10:05:27;;;;;;;17.25;9.48;;;18.80;90.40;;;;;;5014626;28;20462;-78
2021/09/25 10:07:53;;;;;;;15.27;9.85;;;18.80;90.30;;;;;;5015914;28;20030;-78
2021/09/25 10:10:19;;;;;;;14.85;9.40;;;18.80;90.30;;;;;;5014902;28;20030;-79
2021/09/25 10:12:46;;;;;;;15.27;9.80;;;18.90;90.30;;;;;;5015110;28;20042;-79
2021/09/25 10:15:13;;;;;;;14.52;9.00;;;18.90;90.30;;;;;;5014800;28;20520;-79
2021/09/25 10:17:41;;;;;;;18.15;9.98;;;19.00;90.20;;;;;;5015974;28;20394;-75
2021/09/25 10:20:07;;;;;;;18.65;10.80;;;19.00;90.10;;;;;;5014696;28;20989;-78
2021/09/25 10:22:34;;;;;;;20.52;10.45;;;19.00;90.00;;;;;;5015886;28;20026;-79
2021/09/25 10:25:04;;;;;;;17.00;10.57;;;19.10;89.80;;;;;;4998446;28;20064;-79
2021/09/25 10:27:36;;;;;;;15.45;9.60;;;19.10;89.50;;;;;;5015411;28;20025;-77
2021/09/25 10:30:07;;;;;;;17.15;9.38;;;19.20;89.50;;;;;;5014835;28;20030;-76
2021/09/25 10:32:40;;;;;;;20.00;11.05;;;19.20;89.50;;;;;;4998959;28;20018;-78
2021/09/25 10:35:10;;;;;;;17.95;11.32;;;19.20;89.40;;;;;;5014329;28;20034;-77
2021/09/25 10:37:46;;;;;;;17.60;10.98;;;19.20;89.20;;;;;;5016023;28;20413;-77
2021/09/25 10:40:17;;;;;;;17.08;11.15;;;19.30;89.40;;;;;;5015459;28;20022;-77
2021/09/25 10:42:49;;;;;;;17.35;10.23;;;19.30;89.30;;;;;;5015539;28;20443;-77
2021/09/25 10:45:25;;;;;;;17.58;10.75;;;19.40;89.30;;;;;;5015129;28;20018;-77
2021/09/25 10:48:09;;;;;;;18.25;11.32;;;19.50;89.10;;;;;;5013820;28;20025;-76
2021/09/25 10:50:39;;;;;;;18.60;12.05;;;19.50;88.80;;;;;;5015475;28;20053;-76
2021/09/25 10:53:11;;;;;;;18.35;12.10;;;19.50;88.60;;;;;;5030606;28;20498;-77
2021/09/25 10:55:40;;;;;;;17.45;11.32;;;19.50;88.70;;;;;;5013943;28;20026;-77
2021/09/25 10:58:29;;;;;;;17.17;10.85;;;19.50;88.70;;;;;;5014141;28;20049;-77
2021/09/25 11:00:55;;;;;;;18.05;10.63;;;19.60;88.60;;;;;;5013831;28;20175;-77
2021/09/25 11:03:39;;;;;;;20.70;10.25;;;19.70;88.50;;;;;;5014207;28;20485;-77
2021/09/25 11:06:06;;;;;;;18.83;12.90;;;19.80;88.30;;;;;;5014217;28;20029;-77
2021/09/25 11:08:34;;;;;;;19.08;11.50;;;19.80;88.10;;;;;;5013672;28;20021;-76
2021/09/25 11:11:10;;;;;;;17.70;11.20;;;19.90;87.90;;;;;;5014898;28;20045;-77
2021/09/25 11:14:01;;;;;;;16.52;10.57;;;19.90;87.70;;;;;;5013921;28;20354;-77
2021/09/25 11:16:48;;;;;;;16.25;10.68;;;20.00;87.50;;;;;;5013434;28;20026;-76
2021/09/25 11:19:22;;;;;;;16.67;10.75;;;20.10;87.40;;;;;;5014504;28;20061;-76
2021/09/25 11:22:02;;;;;;;17.63;11.93;;;20.10;87.10;;;;;;5013144;28;20053;-77
2021/09/25 11:24:33;;;;;;;18.35;11.82;;;20.10;86.70;;;;;;5013193;28;20450;-77
2021/09/25 11:27:01;;;;;;;18.73;11.88;;;20.10;86.60;;;;;;5014492;28;20064;-77
2021/09/25 11:29:27;;;;;;;16.08;11.75;;;20.20;86.60;;;;;;4997113;28;20034;-78
2021/09/25 11:32:05;;;;;;;17.17;10.82;;;20.20;86.60;;;;;;5014386;28;20036;-76
2021/09/25 11:34:33;;;;;;;16.05;11.70;;;20.30;86.40;;;;;;5013421;28;20036;-77
2021/09/25 11:37:01;;;;;;;18.83;11.65;;;20.40;86.30;;;;;;5012800;28;20030;-77
2021/09/25 11:39:41;;;;;;;19.50;12.73;;;20.40;86.10;;;;;;5013028;28;20033;-75
2021/09/25 11:42:17;;;;;;;17.35;11.82;;;20.50;85.80;;;;;;5012774;28;20042;-77
2021/09/25 11:44:48;;;;;;;19.67;12.93;;;20.50;85.60;;;;;;5014332;28;20026;-78
2021/09/25 11:47:24;;;;;;;18.65;12.27;;;20.60;85.30;;;;;;5014387;28;20070;-77
2021/09/25 11:49:50;;;;;;;23.00;11.48;;;20.60;85.20;;;;;;5012807;28;20500;-77
2021/09/25 11:52:16;;;;;;;20.60;12.65;;;20.60;85.10;;;;;;5012960;28;20462;-78
2021/09/25 11:54:43;;;;;;;19.65;11.50;;;20.60;84.90;;;;;;5012961;28;20088;-78
2021/09/25 11:57:27;;;;;;;19.90;10.88;;;20.60;85.50;;;;;;4996842;28;20022;-78
2021/09/25 11:59:53;;;;;;;;;;;20.70;84.80;;;;;;5014553;28;20030;-77
2021/09/25 12:02:43;;;;;;;16.35;10.15;;;20.90;84.80;;;;;;5012872;28;19916;-77
2021/09/25 12:05:28;;;;;;;18.67;10.65;;;20.90;84.60;;;;;;5012954;28;20026;-77
2021/09/25 12:07:54;;;;;;;16.30;9.73;;;21.00;84.30;;;;;;5014175;28;20045;-77
2021/09/25 12:10:22;;;;;;;16.42;11.23;;;21.10;83.90;;;;;;5014313;28;20022;-77
2021/09/25 12:12:52;;;;;;;17.55;10.52;;;21.20;83.60;;;;;;5014103;28;20025;-77
2021/09/25 12:15:26;;;;;;;18.67;10.98;;;21.20;83.50;;;;;;5012890;28;20037;-77
2021/09/25 12:18:12;;;;;;;14.15;9.52;;;21.40;83.30;;;;;;4996674;28;20030;-76
2021/09/25 12:20:41;;;;;;;19.00;10.02;;;21.50;82.90;;;;;;5015122;28;20045;-77
2021/09/25 12:23:08;;;;;;;18.85;10.38;;;21.60;82.80;;;;;;5012499;28;20034;-77
2021/09/25 12:25:37;;;;;;;15.20;10.07;;;21.70;82.40;;;;;;5013674;28;20029;-77
2021/09/25 12:28:03;;;;;;;14.82;10.23;;;21.70;82.00;;;;;;5012533;28;20378;-76
2021/09/25 12:30:29;;;;;;;17.88;10.30;;;21.70;81.90;;;;;;4996302;28;20037;-76
2021/09/25 12:33:00;;;;;;;14.27;10.30;;;21.80;81.60;;;;;;4996044;28;20026;-76
2021/09/25 12:35:26;;;;;;;17.42;10.38;;;21.70;81.20;;;;;;5012682;28;20467;-77
2021/09/25 12:37:51;;;;;;;17.73;11.10;;;21.70;81.10;;;;;;5012641;28;20057;-76
2021/09/25 12:40:18;;;;;;;15.32;10.23;;;21.70;81.10;;;;;;5012367;28;20041;-77